createdAt,value
2023-03-17T00:01:51.043Z,16.57
2023-03-17T00:04:53.514Z,21.30
2023-03-17T00:08:01.476Z,19.00
2023-03-17T00:11:03.938Z,19.67
2023-03-17T00:14:06.326Z,18.85
2023-03-17T00:17:09.954Z,18.42
2023-03-17T00:20:17.431Z,19.58
2023-03-17T00:23:22.290Z,19.05
2023-03-17T00:26:25.342Z,17.52
2023-03-17T00:29:27.980Z,20.67
2023-03-17T00:32:30.179Z,19.63
2023-03-17T00:35:33.374Z,22.38
2023-03-17T00:38:35.558Z,18.10
2023-03-17T00:41:38.459Z,20.90
2023-03-17T00:44:41.841Z,18.05
2023-03-17T00:47:45.389Z,21.30
2023-03-17T00:50:49.774Z,23.20
2023-03-17T00:53:52.732Z,21.40
2023-03-17T00:56:55.381Z,22.20
2023-03-17T00:59:57.559Z,19.83
2023-03-17T01:02:59.750Z,21.57
2023-03-17T01:06:04.675Z,22.23
2023-03-17T01:09:08.229Z,21.30
2023-03-17T01:12:12.856Z,22.73
2023-03-17T01:15:15.859Z,22.48
2023-03-17T01:18:21.287Z,18.23
2023-03-17T01:21:23.790Z,18.50
2023-03-17T01:24:28.511Z,16.25
2023-03-17T01:27:35.053Z,18.95
2023-03-17T01:30:39.318Z,20.08
2023-03-17T01:33:41.510Z,19.03
2023-03-17T01:36:43.763Z,20.25
2023-03-17T01:39:46.619Z,22.23
2023-03-17T01:43:09.164Z,17.77
2023-03-17T01:46:31.725Z,23.40
2023-03-17T01:49:37.527Z,19.13
2023-03-17T01:52:40.062Z,20.67
2023-03-17T01:55:44.828Z,21.08
2023-03-17T01:58:49.565Z,23.67
2023-03-17T02:01:54.992Z,23.25
2023-03-17T02:04:57.912Z,21.20
2023-03-17T02:08:00.264Z,23.35
2023-03-17T02:11:05.302Z,25.08
2023-03-17T02:14:08.877Z,22.77
2023-03-17T02:17:11.198Z,19.80
2023-03-17T02:20:16.324Z,20.23
2023-03-17T02:23:24.761Z,20.88
2023-03-17T02:26:29.114Z,21.88
2023-03-17T02:29:34.939Z,22.35
2023-03-17T02:32:38.110Z,23.55
2023-03-17T02:35:41.492Z,20.90
2023-03-17T02:38:43.886Z,24.60
2023-03-17T02:41:46.165Z,21.13
2023-03-17T02:44:49.501Z,21.53
2023-03-17T02:47:54.340Z,24.30
2023-03-17T02:50:56.540Z,25.35
2023-03-17T02:53:58.737Z,27.65
2023-03-17T02:57:01.137Z,22.98
2023-03-17T03:00:03.990Z,27.17
2023-03-17T03:03:06.326Z,26.58
2023-03-17T03:06:08.668Z,23.60
2023-03-17T03:09:11.906Z,25.10
2023-03-17T03:12:14.385Z,29.48
2023-03-17T03:15:16.705Z,25.67
2023-03-17T03:18:18.888Z,23.73
2023-03-17T03:21:22.107Z,20.98
2023-03-17T03:24:24.295Z,24.05
2023-03-17T03:27:26.641Z,27.10
2023-03-17T03:30:29.151Z,20.35
2023-03-17T03:33:31.847Z,22.38
2023-03-17T03:36:34.176Z,18.90
2023-03-17T03:39:37.544Z,23.30
2023-03-17T03:42:39.747Z,20.20
2023-03-17T03:45:42.094Z,20.87
2023-03-17T03:48:44.326Z,19.88
2023-03-17T03:51:46.496Z,21.73
2023-03-17T03:54:48.983Z,18.63
2023-03-17T03:57:51.360Z,16.50
2023-03-17T04:00:53.560Z,16.67
2023-03-17T04:03:55.802Z,18.05
2023-03-17T04:06:58.002Z,16.40
2023-03-17T04:10:00.196Z,17.30
2023-03-17T04:13:02.552Z,18.33
2023-03-17T04:16:05.108Z,18.83
2023-03-17T04:19:07.694Z,20.60
2023-03-17T04:22:11.958Z,19.67
2023-03-17T04:25:15.040Z,18.60
2023-03-17T04:28:17.714Z,12.80
2023-03-17T04:31:20.077Z,19.05
2023-03-17T04:34:23.116Z,17.10
2023-03-17T04:37:25.778Z,16.37
2023-03-17T04:40:29.388Z,17.73
2023-03-17T04:43:31.692Z,16.33
2023-03-17T04:46:34.021Z,15.30
2023-03-17T04:49:36.286Z,18.08
2023-03-17T04:52:38.957Z,17.88
2023-03-17T04:55:41.369Z,17.90
2023-03-17T04:58:43.630Z,15.20
2023-03-17T05:01:46.095Z,16.48
2023-03-17T05:04:48.660Z,14.93
2023-03-17T05:07:50.876Z,15.00
2023-03-17T05:10:53.093Z,19.23
2023-03-17T05:13:55.375Z,16.40
2023-03-17T05:16:57.687Z,16.37
2023-03-17T05:19:59.903Z,18.00
2023-03-17T05:23:02.134Z,18.70
2023-03-17T05:26:04.870Z,21.58
2023-03-17T05:29:07.327Z,17.67
2023-03-17T05:32:09.708Z,21.80
2023-03-17T05:35:11.820Z,20.20
2023-03-17T05:38:15.932Z,21.97
2023-03-17T05:41:18.090Z,23.15
2023-03-17T05:44:20.857Z,22.98
2023-03-17T05:47:23.163Z,22.00
2023-03-17T05:50:26.064Z,18.70
2023-03-17T05:53:28.591Z,19.80
2023-03-17T05:56:33.716Z,22.77
2023-03-17T05:59:36.225Z,19.42
2023-03-17T06:02:39.155Z,20.20
2023-03-17T06:05:41.926Z,25.65
2023-03-17T06:08:44.634Z,20.50
2023-03-17T06:11:46.808Z,24.63
2023-03-17T06:14:49.043Z,22.33
2023-03-17T06:17:51.810Z,25.17
2023-03-17T06:20:54.075Z,24.05
2023-03-17T06:23:56.233Z,23.45
2023-03-17T06:26:58.457Z,22.38
2023-03-17T06:30:00.693Z,24.33
2023-03-17T06:33:03.823Z,23.50
2023-03-17T06:36:06.485Z,18.65
2023-03-17T06:39:09.569Z,23.57
2023-03-17T06:42:12.019Z,19.35
2023-03-17T06:45:14.350Z,21.95
2023-03-17T06:48:16.821Z,18.53
2023-03-17T06:51:18.992Z,20.40
2023-03-17T06:54:23.916Z,19.15
2023-03-17T06:57:26.265Z,19.20
2023-03-17T07:00:30.400Z,19.00
2023-03-17T07:03:33.738Z,20.50
2023-03-17T07:06:36.086Z,23.45
2023-03-17T07:09:40.406Z,18.63
2023-03-17T07:12:47.274Z,18.58
2023-03-17T07:15:55.238Z,18.20
2023-03-17T07:18:58.195Z,20.67
2023-03-17T07:22:00.495Z,18.25
2023-03-17T07:25:02.686Z,18.05
2023-03-17T07:28:07.434Z,18.67
2023-03-17T07:31:11.563Z,17.05
2023-03-17T07:34:14.011Z,18.98
2023-03-17T07:37:16.198Z,15.85
2023-03-17T07:40:18.650Z,17.53
2023-03-17T07:43:21.046Z,13.75
2023-03-17T07:46:23.713Z,13.07
2023-03-17T07:49:40.360Z,18.00
2023-03-17T07:52:43.857Z,14.15
2023-03-17T07:55:46.442Z,11.18
2023-03-17T07:58:48.788Z,14.93
2023-03-17T08:01:52.214Z,9.40
2023-03-17T08:04:57.257Z,10.20
2023-03-17T08:07:59.613Z,12.20
2023-03-17T08:11:06.386Z,9.87
2023-03-17T08:14:16.782Z,10.73
2023-03-17T08:17:19.792Z,12.77
2023-03-17T08:20:22.613Z,11.33
2023-03-17T08:23:26.137Z,10.48
2023-03-17T08:26:29.742Z,6.60
2023-03-17T08:29:33.570Z,6.72
2023-03-17T08:32:36.941Z,5.43
2023-03-17T08:35:41.588Z,5.38
2023-03-17T08:38:45.000Z,7.05
2023-03-17T08:41:47.196Z,6.37
2023-03-17T08:44:49.900Z,3.70
2023-03-17T08:47:59.942Z,4.57
2023-03-17T08:51:02.435Z,4.47
2023-03-17T08:54:05.997Z,4.88
2023-03-17T08:57:08.352Z,6.35
2023-03-17T09:00:22.172Z,4.47
2023-03-17T09:03:24.581Z,5.60
2023-03-17T09:06:30.311Z,5.65
2023-03-17T09:09:34.869Z,5.60
2023-03-17T09:12:38.063Z,4.67
2023-03-17T09:15:40.566Z,4.65
2023-03-17T09:18:43.179Z,6.15
2023-03-17T09:21:45.433Z,4.63
2023-03-17T09:24:47.972Z,4.70
2023-03-17T09:27:50.402Z,6.60
2023-03-17T09:30:52.915Z,6.13
2023-03-17T09:33:55.206Z,4.20
2023-03-17T09:36:59.760Z,3.55
2023-03-17T09:40:05.129Z,5.00
2023-03-17T09:43:31.160Z,4.00
2023-03-17T09:47:02.441Z,4.65
2023-03-17T09:50:10.935Z,4.45
2023-03-17T09:53:18.895Z,8.70
2023-03-17T09:56:24.779Z,4.10
2023-03-17T09:59:40.442Z,4.20
2023-03-17T10:02:43.426Z,4.00
2023-03-17T10:05:46.901Z,3.42
2023-03-17T10:09:27.221Z,3.47
2023-03-17T10:12:51.366Z,3.70
2023-03-17T10:16:04.126Z,4.27
2023-03-17T10:19:18.596Z,5.53
2023-03-17T10:22:46.643Z,3.60
2023-03-17T10:25:51.248Z,3.30
2023-03-17T10:28:59.886Z,5.45
2023-03-17T10:32:02.206Z,4.97
2023-03-17T10:35:12.700Z,3.35
2023-03-17T10:38:19.302Z,5.85
2023-03-17T10:41:22.114Z,4.93
2023-03-17T10:44:43.207Z,5.22
2023-03-17T10:47:50.979Z,3.47
2023-03-17T10:50:56.883Z,3.97
2023-03-17T10:54:10.179Z,4.75
2023-03-17T10:57:15.898Z,6.40
2023-03-17T11:00:23.375Z,3.25
2023-03-17T11:03:31.284Z,3.72
2023-03-17T11:06:43.894Z,4.22
2023-03-17T11:09:50.694Z,4.95
2023-03-17T11:13:01.876Z,3.92
2023-03-17T11:16:11.047Z,3.67
2023-03-17T11:19:16.164Z,5.57
2023-03-17T11:22:30.490Z,4.43
2023-03-17T11:25:34.787Z,6.43
2023-03-17T11:28:41.146Z,3.50
2023-03-17T11:31:51.751Z,4.72
2023-03-17T11:35:03.574Z,3.38
2023-03-17T11:38:25.173Z,4.85
2023-03-17T11:41:36.352Z,3.92
2023-03-17T11:44:50.428Z,5.68
2023-03-17T11:48:02.676Z,6.13
2023-03-17T11:51:15.400Z,4.77
2023-03-17T11:54:46.132Z,4.63
2023-03-17T11:58:13.731Z,3.80
2023-03-17T12:01:30.668Z,5.00
2023-03-17T12:04:56.095Z,5.32
2023-03-17T12:08:19.357Z,5.32
2023-03-17T12:11:25.450Z,4.28
2023-03-17T12:14:35.073Z,4.70
2023-03-17T12:18:02.788Z,4.45
2023-03-17T12:21:14.688Z,6.60
2023-03-17T12:24:38.474Z,4.37
2023-03-17T12:28:10.975Z,3.88
2023-03-17T12:31:20.458Z,4.13
2023-03-17T12:34:27.179Z,4.63
2023-03-17T12:37:30.219Z,3.45
2023-03-17T12:40:46.834Z,3.08
2023-03-17T12:44:05.610Z,3.92
2023-03-17T12:47:41.984Z,4.07
2023-03-17T12:50:47.233Z,5.38
2023-03-17T12:53:51.528Z,3.58
2023-03-17T12:57:08.105Z,4.10
2023-03-17T13:00:29.739Z,4.38
2023-03-17T13:03:33.458Z,4.97
2023-03-17T13:06:48.098Z,4.23
2023-03-17T13:09:53.321Z,8.35
2023-03-17T13:13:05.656Z,5.38
2023-03-17T13:16:26.802Z,4.78
2023-03-17T13:19:33.585Z,4.22
2023-03-17T13:22:41.645Z,5.38
2023-03-17T13:25:55.373Z,4.18
2023-03-17T13:29:03.349Z,4.73
2023-03-17T13:32:24.793Z,5.15
2023-03-17T13:35:45.157Z,6.00
2023-03-17T13:39:18.717Z,4.30
2023-03-17T13:42:40.275Z,5.20
2023-03-17T13:45:47.577Z,3.55
2023-03-17T13:48:50.132Z,3.05
2023-03-17T13:52:04.617Z,4.38
2023-03-17T13:55:20.383Z,3.80
2023-03-17T13:58:24.885Z,3.53
2023-03-17T14:01:28.937Z,4.83
2023-03-17T14:04:42.355Z,5.68
2023-03-17T14:08:04.938Z,4.38
2023-03-17T14:11:15.573Z,4.10
2023-03-17T14:14:32.634Z,5.68
2023-03-17T14:17:41.773Z,5.82
2023-03-17T14:20:55.493Z,3.72
2023-03-17T14:24:00.281Z,2.92
2023-03-17T14:27:09.291Z,5.50
2023-03-17T14:30:38.387Z,4.10
2023-03-17T14:33:41.312Z,3.93
2023-03-17T14:36:43.669Z,4.18
2023-03-17T14:39:54.804Z,6.50
2023-03-17T14:42:57.417Z,5.33
2023-03-17T14:46:05.222Z,4.35
2023-03-17T14:49:18.414Z,6.13
2023-03-17T14:52:26.446Z,4.85
2023-03-17T14:55:39.675Z,6.13
2023-03-17T14:58:44.503Z,3.90
2023-03-17T15:01:48.584Z,3.30
2023-03-17T15:04:57.548Z,3.30
2023-03-17T15:07:59.892Z,5.05
2023-03-17T15:11:04.122Z,3.05
2023-03-17T15:14:16.502Z,7.00
2023-03-17T15:17:21.239Z,4.90
2023-03-17T15:20:23.785Z,5.15
2023-03-17T15:23:29.041Z,5.10
2023-03-17T15:26:31.573Z,4.65
2023-03-17T15:29:34.103Z,4.93
2023-03-17T15:32:36.596Z,5.10
2023-03-17T15:35:38.991Z,6.97
2023-03-17T15:38:41.378Z,6.53
2023-03-17T15:41:43.616Z,5.97
2023-03-17T15:44:46.038Z,5.00
2023-03-17T15:47:48.409Z,4.82
2023-03-17T15:50:51.422Z,4.00
2023-03-17T15:53:53.705Z,4.05
2023-03-17T15:56:57.059Z,5.03
2023-03-17T15:59:59.315Z,3.97
2023-03-17T16:03:26.986Z,5.53
2023-03-17T16:06:29.290Z,4.13
2023-03-17T16:09:31.970Z,5.65
2023-03-17T16:12:34.183Z,5.82
2023-03-17T16:15:38.833Z,4.00
2023-03-17T16:18:41.853Z,5.82
2023-03-17T16:21:44.328Z,5.30
2023-03-17T16:24:46.537Z,5.63
2023-03-17T16:27:51.396Z,6.75
2023-03-17T16:30:55.382Z,4.38
2023-03-17T16:33:57.995Z,5.20
2023-03-17T16:37:00.326Z,7.80
2023-03-17T16:40:02.809Z,6.63
2023-03-17T16:43:12.937Z,5.72
2023-03-17T16:46:20.005Z,6.60
2023-03-17T16:49:23.017Z,6.28
2023-03-17T16:52:25.690Z,5.20
2023-03-17T16:55:29.008Z,5.57
2023-03-17T16:58:33.745Z,6.78
2023-03-17T17:01:35.968Z,6.65
2023-03-17T17:04:39.730Z,9.32
2023-03-17T17:07:42.330Z,7.27
2023-03-17T17:10:44.490Z,5.25
2023-03-17T17:13:48.366Z,5.57
2023-03-17T17:16:50.611Z,8.47
2023-03-17T17:19:52.695Z,7.30
2023-03-17T17:22:55.550Z,6.63
2023-03-17T17:25:57.773Z,6.82
2023-03-17T17:29:00.041Z,6.40
2023-03-17T17:32:02.326Z,8.75
2023-03-17T17:35:04.828Z,9.13
2023-03-17T17:38:16.592Z,9.87
2023-03-17T17:41:21.584Z,8.20
2023-03-17T17:44:23.760Z,7.93
2023-03-17T17:47:26.166Z,11.13
2023-03-17T17:50:30.108Z,10.25
2023-03-17T17:53:32.557Z,10.25
2023-03-17T17:56:38.081Z,10.88
2023-03-17T17:59:40.371Z,9.35
2023-03-17T18:02:42.939Z,8.80
2023-03-17T18:05:45.109Z,10.80
2023-03-17T18:08:47.251Z,10.00
2023-03-17T18:11:49.468Z,11.43
2023-03-17T18:14:51.658Z,11.77
2023-03-17T18:17:54.192Z,12.67
2023-03-17T18:20:56.394Z,14.93
2023-03-17T18:23:59.526Z,16.48
2023-03-17T18:27:03.795Z,13.85
2023-03-17T18:30:08.609Z,17.75
2023-03-17T18:33:19.877Z,16.40
2023-03-17T18:36:22.400Z,16.45
2023-03-17T18:39:24.556Z,16.97
2023-03-17T18:42:27.283Z,15.68
2023-03-17T18:45:29.466Z,17.60
2023-03-17T18:48:31.758Z,15.80
2023-03-17T18:51:34.122Z,16.67
2023-03-17T18:54:37.600Z,15.85
2023-03-17T18:57:42.590Z,17.20
2023-03-17T19:00:46.951Z,15.65
2023-03-17T19:03:49.382Z,15.05
2023-03-17T19:06:51.576Z,14.75
2023-03-17T19:09:53.859Z,15.47
2023-03-17T19:12:56.158Z,15.45
2023-03-17T19:15:58.324Z,15.77
2023-03-17T19:19:00.850Z,18.05
2023-03-17T19:22:03.929Z,19.75
2023-03-17T19:25:06.729Z,21.48
2023-03-17T19:28:08.936Z,26.15
2023-03-17T19:31:11.427Z,25.87
2023-03-17T19:34:15.300Z,25.60
2023-03-17T19:37:17.511Z,27.63
2023-03-17T19:40:19.824Z,24.77
2023-03-17T19:43:39.103Z,25.63
2023-03-17T19:46:41.951Z,24.50
2023-03-17T19:49:44.139Z,23.45
2023-03-17T19:52:46.596Z,23.05
2023-03-17T19:55:49.157Z,24.77
2023-03-17T19:58:51.519Z,22.15
2023-03-17T20:01:53.755Z,22.13
2023-03-17T20:04:56.069Z,22.02
2023-03-17T20:07:58.353Z,22.35
2023-03-17T20:11:00.748Z,20.60
2023-03-17T20:14:03.746Z,20.38
2023-03-17T20:17:05.955Z,23.38
2023-03-17T20:20:10.595Z,22.77
2023-03-17T20:23:13.886Z,20.27
2023-03-17T20:26:16.109Z,21.00
2023-03-17T20:29:18.329Z,21.20
2023-03-17T20:32:20.976Z,21.00
2023-03-17T20:35:24.865Z,19.02
2023-03-17T20:38:27.957Z,22.10
2023-03-17T20:41:30.746Z,21.87
2023-03-17T20:44:32.936Z,17.95
2023-03-17T20:47:35.206Z,19.85
2023-03-17T20:50:38.817Z,17.45
2023-03-17T20:53:40.977Z,17.48
2023-03-17T20:56:44.152Z,21.00
2023-03-17T20:59:46.356Z,17.58
2023-03-17T21:02:50.343Z,19.87
2023-03-17T21:05:53.423Z,21.55
2023-03-17T21:08:55.814Z,19.58
2023-03-17T21:11:58.093Z,16.57
2023-03-17T21:15:00.721Z,19.90
2023-03-17T21:18:03.135Z,18.00
2023-03-17T21:21:05.723Z,18.02
2023-03-17T21:24:09.560Z,17.52
2023-03-17T21:27:12.632Z,17.45
2023-03-17T21:30:15.801Z,18.02
2023-03-17T21:33:18.329Z,19.47
2023-03-17T21:36:21.291Z,17.45
2023-03-17T21:39:24.068Z,21.40
2023-03-17T21:42:29.405Z,20.87
2023-03-17T21:45:31.944Z,18.08
2023-03-17T21:48:34.197Z,16.65
2023-03-17T21:51:36.441Z,18.00
2023-03-17T21:54:38.725Z,21.25
2023-03-17T21:57:41.036Z,18.50
2023-03-17T22:00:45.957Z,17.02
2023-03-17T22:03:49.615Z,15.60
2023-03-17T22:06:52.145Z,17.42
2023-03-17T22:09:56.974Z,16.75
2023-03-17T22:12:59.213Z,16.83
2023-03-17T22:16:02.248Z,17.30
2023-03-17T22:19:04.480Z,16.52
2023-03-17T22:22:06.729Z,15.45
2023-03-17T22:25:09.092Z,14.95
2023-03-17T22:28:11.312Z,17.90
2023-03-17T22:31:20.581Z,16.58
2023-03-17T22:34:23.315Z,17.47
2023-03-17T22:37:25.760Z,14.48
2023-03-17T22:40:28.003Z,16.40
2023-03-17T22:43:30.402Z,13.17
2023-03-17T22:46:32.734Z,14.77
2023-03-17T22:49:34.959Z,14.35
2023-03-17T22:52:37.874Z,14.02
2023-03-17T22:55:40.097Z,11.68
2023-03-17T22:58:42.707Z,13.20
2023-03-17T23:01:46.155Z,12.38
2023-03-17T23:04:49.123Z,12.57
2023-03-17T23:07:51.854Z,15.10
2023-03-17T23:10:54.826Z,12.30
2023-03-17T23:13:57.468Z,11.40
2023-03-17T23:17:00.181Z,13.60
2023-03-17T23:20:05.445Z,13.25
2023-03-17T23:23:08.419Z,11.63
2023-03-17T23:26:11.089Z,12.77
2023-03-17T23:29:13.312Z,14.05
2023-03-17T23:32:15.611Z,12.18
2023-03-17T23:35:19.506Z,13.07
2023-03-17T23:38:21.970Z,11.80
2023-03-17T23:41:24.200Z,13.35
2023-03-17T23:44:27.109Z,11.73
2023-03-17T23:47:29.524Z,11.68
2023-03-17T23:50:32.034Z,13.27
2023-03-17T23:53:36.209Z,10.02
2023-03-17T23:56:38.387Z,12.65
2023-03-17T23:59:40.544Z,12.38
